Time;durP1;ratioP1;P1;durP2;ratioP2;P2;SDS_P1;SDS_P2;PMS_P1;PMS_P2;Temp;Humidity;BMP_temperature;BMP_pressure;BME280_temperature;BME280_humidity;BME280_pressure;Samples;Min_cycle;Max_cycle;Signal;HPM_P1;HPM_P2
2023/04/26 00:00:00;;;;;;;7.10;6.10;;;;;;;9.40;85.94;92490.63;516122;28;887;-60
2023/04/26 00:00:16;;;;;;;7.47;6.15;;;;;;;9.43;85.68;92491.53;516007;28;879;-60
2023/04/26 00:00:32;;;;;;;8.23;6.25;;;;;;;9.43;86.03;92484.00;516049;28;825;-60
2023/04/26 00:00:48;;;;;;;10.73;6.60;;;;;;;9.46;85.71;92493.16;516110;28;814;-60
2023/04/26 00:01:04;;;;;;;9.33;6.40;;;;;;;9.46;85.91;92493.91;515937;28;833;-60
2023/04/26 00:01:20;;;;;;;6.90;5.88;;;;;;;9.47;85.79;92491.84;516121;28;818;-60
2023/04/26 00:01:36;;;;;;;8.52;6.88;;;;;;;9.44;85.60;92490.94;516058;28;898;-60
2023/04/26 00:01:52;;;;;;;11.07;8.97;;;;;;;9.43;85.87;92494.28;516026;28;829;-60
2023/04/26 00:02:07;;;;;;;11.25;9.77;;;;;;;9.42;85.82;92484.56;516013;28;872;-60
2023/04/26 00:02:22;;;;;;;10.85;9.27;;;;;;;9.44;86.01;92495.75;516066;28;785;-60
2023/04/26 00:02:38;;;;;;;10.27;9.00;;;;;;;9.44;85.84;92490.94;516055;28;783;-60
2023/04/26 00:02:54;;;;;;;11.60;7.88;;;;;;;9.39;85.80;92488.44;516079;28;952;-60
2023/04/26 00:03:11;;;;;;;11.77;7.40;;;;;;;9.48;85.66;92493.31;516032;28;754;-60
2023/04/26 00:03:27;;;;;;;9.50;7.65;;;;;;;9.49;85.59;92487.25;516030;28;836;-60
2023/04/26 00:03:42;;;;;;;8.37;7.50;;;;;;;9.53;85.77;92492.38;515995;28;923;-60
2023/04/26 00:03:58;;;;;;;8.95;8.05;;;;;;;9.54;85.52;92493.81;516004;28;823;-60
2023/04/26 00:04:13;;;;;;;9.10;7.83;;;;;;;9.57;85.32;92487.19;515654;28;1430;-60
2023/04/26 00:04:29;;;;;;;9.50;7.90;;;;;;;9.58;85.19;92485.88;515890;28;1010;-60
2023/04/26 00:04:46;;;;;;;9.65;7.75;;;;;;;9.59;85.07;92490.09;515865;28;900;-60
2023/04/26 00:05:02;;;;;;;8.95;7.47;;;;;;;9.59;84.69;92482.56;515882;28;880;-60
2023/04/26 00:05:18;;;;;;;8.82;7.38;;;;;;;9.58;84.74;92489.38;515904;28;895;-60
2023/04/26 00:05:34;;;;;;;7.87;6.87;;;;;;;9.56;84.86;92485.72;515887;28;774;-60
2023/04/26 00:05:50;;;;;;;7.60;6.80;;;;;;;9.55;84.62;92487.03;515912;28;983;-61
2023/04/26 00:06:08;;;;;;;7.70;6.90;;;;;;;9.49;84.93;92481.72;515904;28;818;-60
2023/04/26 00:06:25;;;;;;;7.97;6.90;;;;;;;9.56;84.67;92488.47;516084;28;862;-60
2023/04/26 00:06:41;;;;;;;9.82;6.88;;;;;;;9.56;84.78;92480.94;516014;28;789;-60
2023/04/26 00:06:57;;;;;;;9.40;6.40;;;;;;;9.51;85.17;92476.38;516035;28;821;-60
2023/04/26 00:07:14;;;;;;;8.05;6.13;;;;;;;9.56;85.23;92482.94;516009;28;859;-61
2023/04/26 00:07:29;;;;;;;7.55;6.05;;;;;;;9.57;85.28;92482.38;516106;28;813;-60
2023/04/26 00:07:45;;;;;;;6.82;5.90;;;;;;;9.57;85.04;92485.13;516013;28;862;-61
2023/04/26 00:08:01;;;;;;;6.67;5.70;;;;;;;9.57;85.37;92481.66;515941;28;943;-60
2023/04/26 00:08:16;;;;;;;6.68;5.72;;;;;;;9.52;85.45;92480.59;515915;28;872;-60
2023/04/26 00:08:32;;;;;;;7.80;5.65;;;;;;;9.50;85.49;92476.94;515874;28;878;-60
2023/04/26 00:08:47;;;;;;;9.07;5.73;;;;;;;9.49;85.40;92475.47;516011;28;860;-60
2023/04/26 00:09:03;;;;;;;8.68;6.15;;;;;;;9.45;85.47;92475.16;516044;28;811;-60
2023/04/26 00:09:19;;;;;;;7.70;6.18;;;;;;;9.43;85.74;92480.50;516088;28;914;-61
2023/04/26 00:09:34;;;;;;;7.90;6.20;;;;;;;9.41;85.74;92477.59;516030;28;806;-60
2023/04/26 00:09:53;;;;;;;7.72;6.13;;;;;;;9.45;85.82;92475.16;516014;28;923;-60
2023/04/26 00:10:09;;;;;;;6.88;5.70;;;;;;;9.48;85.77;92479.53;515885;28;920;-60
2023/04/26 00:10:25;;;;;;;5.95;5.15;;;;;;;9.49;85.67;92473.47;516050;28;770;-61
2023/04/26 00:10:40;;;;;;;5.97;5.10;;;;;;;9.52;85.43;92475.09;516010;28;785;-61
2023/04/26 00:10:56;;;;;;;6.50;5.50;;;;;;;9.45;85.17;92459.34;516050;28;836;-60
2023/04/26 00:11:11;;;;;;;6.88;5.03;;;;;;;9.56;84.93;92477.44;515976;28;805;-60
2023/04/26 00:11:26;;;;;;;7.33;4.67;;;;;;;9.58;84.94;92477.59;516125;28;762;-60
2023/04/26 00:11:42;;;;;;;6.72;5.07;;;;;;;9.57;84.59;92470.66;515942;28;1136;-61
2023/04/26 00:11:57;;;;;;;7.10;5.47;;;;;;;9.53;84.66;92473.06;516057;28;942;-60
2023/04/26 00:12:13;;;;;;;7.32;5.93;;;;;;;9.34;84.79;92454.31;515944;28;982;-60
2023/04/26 00:12:28;;;;;;;6.20;5.60;;;;;;;9.47;84.77;92473.28;516092;28;860;-60
2023/04/26 00:12:44;;;;;;;5.93;5.33;;;;;;;9.35;84.82;92460.56;516012;28;860;-61
2023/04/26 00:12:59;;;;;;;7.20;5.80;;;;;;;9.45;85.04;92475.88;515851;28;1023;-61
2023/04/26 00:13:15;;;;;;;7.10;6.00;;;;;;;9.45;85.03;92475.88;515812;28;815;-60
2023/04/26 00:13:30;;;;;;;7.07;5.90;;;;;;;9.47;84.81;92478.06;513816;28;667;-60
2023/04/26 00:13:45;;;;;;;7.33;6.03;;;;;;;9.48;84.80;92485.06;513868;28;856;-60
2023/04/26 00:14:01;;;;;;;6.93;5.90;;;;;;;9.47;85.00;92472.56;513818;28;857;-60
2023/04/26 00:14:16;;;;;;;7.03;5.57;;;;;;;9.47;84.66;92478.06;513821;28;824;-60
2023/04/26 00:14:32;;;;;;;7.63;5.60;;;;;;;9.47;84.87;92478.06;513805;28;899;-60
2023/04/26 00:14:48;;;;;;;8.85;5.82;;;;;;;9.47;84.80;92475.31;514257;28;835;-60
2023/04/26 00:15:04;;;;;;;7.97;6.07;;;;;;;9.47;84.73;92470.53;515891;28;805;-61
2023/04/26 00:15:19;;;;;;;6.63;5.90;;;;;;;9.46;84.63;92468.38;515839;28;975;-60
2023/04/26 00:15:35;;;;;;;7.63;6.23;;;;;;;9.44;84.56;92474.41;515998;28;927;-60
2023/04/26 00:15:50;;;;;;;7.50;6.22;;;;;;;9.44;84.47;92474.41;515874;28;2466;-60
2023/04/26 00:16:06;;;;;;;7.43;5.73;;;;;;;9.42;84.46;92468.75;515944;28;789;-61
2023/04/26 00:16:21;;;;;;;7.85;5.72;;;;;;;9.44;84.54;92473.72;515847;28;1294;-60
2023/04/26 00:16:36;;;;;;;8.43;6.00;;;;;;;9.44;84.46;92476.47;515990;28;875;-60
2023/04/26 00:16:52;;;;;;;8.33;5.97;;;;;;;9.44;84.41;92473.72;515949;28;931;-60
2023/04/26 00:17:07;;;;;;;11.32;6.07;;;;;;;9.43;84.27;92475.72;516064;28;817;-60
2023/04/26 00:17:23;;;;;;;11.63;6.30;;;;;;;9.44;84.52;92471.66;516038;28;773;-60
2023/04/26 00:17:39;;;;;;;7.20;5.97;;;;;;;9.42;84.32;92476.31;516061;28;798;-60
2023/04/26 00:17:55;;;;;;;10.48;5.68;;;;;;;9.40;84.41;92471.34;515996;28;1604;-60
2023/04/26 00:18:11;;;;;;;13.50;6.03;;;;;;;9.41;84.52;92470.06;515973;28;790;-60
2023/04/26 00:18:27;;;;;;;10.77;6.15;;;;;;;9.37;84.18;92466.25;515990;28;1910;-60
2023/04/26 00:18:43;;;;;;;8.10;6.07;;;;;;;9.32;84.41;92465.16;516021;28;890;-60
2023/04/26 00:18:59;;;;;;;6.90;6.03;;;;;;;9.29;84.58;92466.28;516022;28;853;-60
2023/04/26 00:19:14;;;;;;;7.78;5.80;;;;;;;9.29;84.55;92471.09;516035;28;802;-60
2023/04/26 00:19:31;;;;;;;8.20;6.00;;;;;;;9.21;84.63;92467.66;516071;28;801;-60
2023/04/26 00:19:46;;;;;;;7.75;6.20;;;;;;;9.07;84.87;92470.69;516080;28;793;-60
2023/04/26 00:20:03;;;;;;;8.47;6.13;;;;;;;8.99;84.95;92469.28;515975;28;889;-61
2023/04/26 00:20:19;;;;;;;7.20;5.82;;;;;;;8.96;85.64;92465.66;516006;28;815;-60
2023/04/26 00:20:34;;;;;;;10.13;5.63;;;;;;;8.95;85.62;92468.94;515973;28;1782;-60
2023/04/26 00:20:50;;;;;;;11.43;6.07;;;;;;;8.93;85.79;92468.78;516031;28;811;-60
2023/04/26 00:21:05;;;;;;;7.72;6.10;;;;;;;8.93;86.01;92464.03;515890;28;857;-60
2023/04/26 00:21:21;;;;;;;5.80;5.17;;;;;;;8.96;86.03;92462.91;516008;28;1671;-60
2023/04/26 00:21:36;;;;;;;6.88;5.13;;;;;;;8.95;86.11;92461.44;516052;28;1087;-60
2023/04/26 00:21:52;;;;;;;7.80;6.10;;;;;;;8.98;85.79;92467.84;515986;28;956;-60
2023/04/26 00:22:10;;;;;;;6.82;6.13;;;;;;;8.99;85.78;92464.53;515934;28;874;-61
2023/04/26 00:22:25;;;;;;;8.07;5.78;;;;;;;8.98;85.72;92467.84;516007;28;955;-60
2023/04/26 00:22:41;;;;;;;8.43;5.73;;;;;;;8.98;85.93;92465.09;515949;28;1018;-60
2023/04/26 00:22:57;;;;;;;6.50;5.57;;;;;;;8.96;85.86;92460.16;516037;28;844;-60
2023/04/26 00:23:12;;;;;;;6.67;5.43;;;;;;;8.80;85.82;92445.03;515939;28;844;-60
2023/04/26 00:23:27;;;;;;;7.05;5.70;;;;;;;8.90;86.03;92467.19;516036;28;782;-60
2023/04/26 00:23:43;;;;;;;7.43;6.10;;;;;;;8.85;86.06;92466.09;516034;28;840;-61
2023/04/26 00:23:58;;;;;;;8.35;6.35;;;;;;;8.82;86.06;92460.97;515918;28;872;-61
2023/04/26 00:24:13;;;;;;;7.93;5.90;;;;;;;8.82;86.17;92461.72;515884;28;909;-60
2023/04/26 00:24:29;;;;;;;7.27;5.40;;;;;;;8.85;86.12;92459.88;516037;28;840;-60
2023/04/26 00:24:44;;;;;;;6.93;5.50;;;;;;;8.88;86.02;92467.72;516017;28;860;-60
2023/04/26 00:24:59;;;;;;;6.75;5.80;;;;;;;8.84;86.06;92461.88;515997;28;892;-60
2023/04/26 00:25:15;;;;;;;6.43;5.50;;;;;;;8.83;85.96;92460.44;515946;28;873;-60
2023/04/26 00:25:30;;;;;;;7.60;5.85;;;;;;;8.86;86.11;92461.31;516063;28;769;-60
2023/04/26 00:25:45;;;;;;;8.63;6.00;;;;;;;8.87;86.04;92457.28;515980;28;940;-60
2023/04/26 00:26:01;;;;;;;8.10;5.53;;;;;;;8.88;86.09;92464.97;515905;28;852;-60
2023/04/26 00:26:16;;;;;;;8.13;5.70;;;;;;;8.91;86.25;92452.09;515888;28;931;-60
2023/04/26 00:26:33;;;;;;;8.20;6.03;;;;;;;8.89;85.94;92455.44;515990;28;773;-61
2023/04/26 00:26:48;;;;;;;7.85;5.82;;;;;;;8.60;86.00;92412.34;516057;28;920;-60
2023/04/26 00:27:07;;;;;;;7.43;5.27;;;;;;;8.92;85.98;92457.03;516003;28;825;-60
2023/04/26 00:27:23;;;;;;;7.78;5.32;;;;;;;8.96;85.77;92460.16;515972;28;795;-60
2023/04/26 00:27:38;;;;;;;7.38;5.68;;;;;;;9.00;85.94;92459.75;516034;28;797;-61
2023/04/26 00:27:53;;;;;;;6.97;5.10;;;;;;;9.02;85.70;92457.91;515944;28;940;-60
2023/04/26 00:28:09;;;;;;;6.70;5.17;;;;;;;9.05;85.67;92456.75;515959;28;817;-60
2023/04/26 00:28:24;;;;;;;6.20;5.30;;;;;;;9.05;85.40;92453.28;515937;28;1050;-60
2023/04/26 00:28:40;;;;;;;7.97;5.40;;;;;;;9.08;85.30;92460.41;515979;28;858;-61
2023/04/26 00:28:55;;;;;;;11.10;5.57;;;;;;;9.10;85.04;92455.81;516002;28;832;-60
2023/04/26 00:29:11;;;;;;;9.98;5.68;;;;;;;9.12;85.09;92447.72;515887;28;853;-60
2023/04/26 00:29:26;;;;;;;7.90;5.53;;;;;;;9.13;84.72;92454.69;516092;28;751;-60
2023/04/26 00:29:42;;;;;;;8.55;6.05;;;;;;;9.14;84.65;92449.88;516005;28;761;-60
2023/04/26 00:29:57;;;;;;;7.73;5.77;;;;;;;9.16;84.64;92452.81;515998;28;801;-60
2023/04/26 00:30:13;;;;;;;9.40;5.15;;;;;;;9.18;84.50;92445.44;515860;28;845;-60
2023/04/26 00:30:28;;;;;;;10.10;5.40;;;;;;;9.18;84.49;92458.50;515992;28;856;-60
2023/04/26 00:30:47;;;;;;;7.18;5.72;;;;;;;9.03;84.42;92433.84;515650;28;1024;-60
2023/04/26 00:31:03;;;;;;;7.15;5.65;;;;;;;9.16;84.43;92448.03;515970;28;918;-60
2023/04/26 00:31:18;;;;;;;6.63;5.33;;;;;;;9.18;84.50;92446.75;515925;28;796;-60
2023/04/26 00:31:33;;;;;;;6.90;5.57;;;;;;;9.18;84.53;92442.00;515939;28;794;-60
2023/04/26 00:31:49;;;;;;;6.67;5.80;;;;;;;9.20;84.58;92446.94;516054;28;817;-60
2023/04/26 00:32:04;;;;;;;6.20;5.60;;;;;;;9.17;84.39;92451.53;515914;28;1026;-60
2023/04/26 00:32:20;;;;;;;6.78;5.55;;;;;;;9.15;84.74;92454.13;517427;28;1052;-60
2023/04/26 00:32:35;;;;;;;6.70;5.33;;;;;;;9.16;84.99;92450.06;518051;28;798;-60
2023/04/26 00:32:51;;;;;;;7.03;4.97;;;;;;;9.16;85.06;92444.56;518057;28;794;-60
2023/04/26 00:33:06;;;;;;;7.43;5.00;;;;;;;9.15;85.18;92445.84;517997;28;1511;-60
2023/04/26 00:33:25;;;;;;;7.88;5.40;;;;;;;9.15;84.95;92445.84;517562;28;1712;-60
2023/04/26 00:33:40;;;;;;;7.57;5.50;;;;;;;9.16;84.97;92444.56;516036;28;871;-60
2023/04/26 00:33:56;;;;;;;9.07;5.28;;;;;;;9.16;85.10;92444.56;516050;28;818;-60
2023/04/26 00:34:11;;;;;;;9.10;5.40;;;;;;;9.16;84.88;92442.53;515942;28;750;-60
2023/04/26 00:34:33;;;;;;;6.13;5.45;;;;;;;9.18;84.71;92444.00;516054;28;809;-60
2023/04/26 00:34:48;;;;;;;6.10;5.20;;;;;;;9.20;84.69;92444.91;515972;28;1908;-60
2023/04/26 00:35:05;;;;;;;6.53;5.40;;;;;;;9.18;84.78;92442.69;515945;28;1668;-60
2023/04/26 00:35:20;;;;;;;6.75;5.80;;;;;;;9.21;84.59;92442.84;516028;28;921;-60
2023/04/26 00:35:36;;;;;;;8.50;6.07;;;;;;;9.22;84.37;92447.09;515989;28;877;-60
2023/04/26 00:35:52;;;;;;;8.25;5.68;;;;;;;9.22;84.46;92442.31;515985;28;815;-60
2023/04/26 00:36:07;;;;;;;6.57;5.10;;;;;;;9.24;84.26;92439.00;515975;28;850;-60
2023/04/26 00:36:23;;;;;;;8.95;5.50;;;;;;;9.26;84.34;92442.66;515893;28;877;-60
2023/04/26 00:36:38;;;;;;;9.70;6.03;;;;;;;9.24;84.37;92444.50;515968;28;845;-60
2023/04/26 00:36:53;;;;;;;8.10;6.10;;;;;;;9.21;84.74;92431.84;515889;28;916;-60
2023/04/26 00:37:09;;;;;;;7.65;6.05;;;;;;;9.18;84.31;92436.47;516014;28;806;-60
2023/04/26 00:37:24;;;;;;;7.77;5.87;;;;;;;9.16;84.42;92434.28;515987;28;753;-60
2023/04/26 00:37:40;;;;;;;7.97;5.95;;;;;;;9.14;84.42;92436.88;515925;28;874;-60
2023/04/26 00:37:55;;;;;;;8.40;6.10;;;;;;;9.13;84.03;92435.41;515952;28;891;-60
2023/04/26 00:38:11;;;;;;;8.25;6.13;;;;;;;9.10;84.19;92433.78;515866;28;890;-60
2023/04/26 00:38:26;;;;;;;8.70;6.13;;;;;;;9.07;84.21;92437.66;515843;28;1973;-60
2023/04/26 00:38:41;;;;;;;8.47;6.30;;;;;;;9.07;84.03;92434.19;515954;28;1066;-60
2023/04/26 00:38:57;;;;;;;9.55;7.03;;;;;;;9.00;84.25;92437.72;516045;28;785;-60
2023/04/26 00:39:12;;;;;;;13.10;8.73;;;;;;;8.90;84.13;92442.41;515972;28;826;-60
2023/04/26 00:39:28;;;;;;;13.67;9.63;;;;;;;8.82;84.28;92433.44;516098;28;908;-60
2023/04/26 00:39:43;;;;;;;14.70;10.55;;;;;;;8.73;84.60;92429.28;515949;28;823;-60
2023/04/26 00:39:59;;;;;;;16.80;12.15;;;;;;;8.68;85.01;92435.03;515914;28;1537;-60
2023/04/26 00:40:15;;;;;;;15.40;12.10;;;;;;;8.64;85.29;92437.44;515879;28;833;-60
2023/04/26 00:40:31;;;;;;;13.93;10.10;;;;;;;8.58;85.58;92437.66;515948;28;856;-60
2023/04/26 00:40:46;;;;;;;11.43;7.80;;;;;;;8.56;85.55;92431.97;515997;28;865;-60
2023/04/26 00:41:02;;;;;;;9.07;6.82;;;;;;;8.54;85.72;92433.81;515896;28;864;-60
2023/04/26 00:41:17;;;;;;;7.50;6.17;;;;;;;8.51;85.97;92434.97;515927;28;912;-60
2023/04/26 00:41:32;;;;;;;7.10;6.27;;;;;;;8.55;86.15;92436.03;515945;28;859;-60
2023/04/26 00:41:48;;;;;;;9.40;6.75;;;;;;;8.58;85.86;92434.16;515978;28;966;-60
2023/04/26 00:42:04;;;;;;;10.82;6.75;;;;;;;8.59;85.95;92436.38;515884;28;1034;-60
2023/04/26 00:42:19;;;;;;;9.83;6.57;;;;;;;8.59;85.99;92427.38;515997;28;1015;-60
2023/04/26 00:42:35;;;;;;;8.40;6.63;;;;;;;8.62;85.84;92432.50;515794;28;913;-60
2023/04/26 00:42:56;;;;;;;8.65;6.68;;;;;;;8.66;85.74;92435.59;515813;28;908;-60
2023/04/26 00:43:12;;;;;;;8.57;6.43;;;;;;;8.68;85.59;92435.78;515763;28;862;-60
2023/04/26 00:43:27;;;;;;;7.60;6.20;;;;;;;8.70;85.52;92433.19;515823;28;833;-60
2023/04/26 00:43:44;;;;;;;7.13;5.93;;;;;;;8.72;85.55;92435.38;515789;28;865;-60
2023/04/26 00:43:59;;;;;;;7.20;6.50;;;;;;;8.75;85.28;92437.00;515859;28;844;-60
2023/04/26 00:44:14;;;;;;;8.67;6.73;;;;;;;8.78;85.30;92439.34;515707;28;841;-62
2023/04/26 00:44:30;;;;;;;8.88;6.55;;;;;;;8.80;85.40;92430.53;515934;28;825;-60
2023/04/26 00:44:45;;;;;;;7.57;6.13;;;;;;;8.81;84.93;92434.75;515911;28;823;-60
2023/04/26 00:45:00;;;;;;;8.03;6.10;;;;;;;8.81;84.97;92432.00;516012;28;868;-61
2023/04/26 00:45:16;;;;;;;7.82;6.20;;;;;;;8.82;84.81;92430.69;515983;28;853;-60
2023/04/26 00:45:31;;;;;;;7.27;5.67;;;;;;;8.83;84.62;92429.41;515958;28;787;-60
2023/04/26 00:45:47;;;;;;;7.03;5.32;;;;;;;8.85;84.32;92429.59;516008;28;952;-60
2023/04/26 00:46:02;;;;;;;7.53;6.40;;;;;;;8.85;84.44;92433.06;515925;28;880;-60
2023/04/26 00:46:19;;;;;;;8.50;7.50;;;;;;;8.87;84.29;92433.25;515874;28;920;-60
2023/04/26 00:46:35;;;;;;;8.60;7.15;;;;;;;8.88;83.92;92431.94;515753;28;1139;-60
2023/04/26 00:46:51;;;;;;;10.38;6.80;;;;;;;8.88;83.93;92428.47;515828;28;845;-60
2023/04/26 00:47:07;;;;;;;10.05;6.93;;;;;;;8.90;84.07;92431.38;515777;28;892;-60
2023/04/26 00:47:24;;;;;;;8.90;7.45;;;;;;;8.89;83.91;92430.66;515792;28;1022;-60
2023/04/26 00:47:39;;;;;;;8.85;7.43;;;;;;;8.85;83.73;92424.81;515715;28;1051;-60
2023/04/26 00:47:55;;;;;;;10.30;7.00;;;;;;;8.89;83.82;92433.41;515871;28;1051;-60
2023/04/26 00:48:11;;;;;;;9.77;6.93;;;;;;;8.91;83.59;92435.59;513634;28;863;-60
2023/04/26 00:48:27;;;;;;;8.32;7.28;;;;;;;8.88;83.76;92429.19;511866;29;897;-60
2023/04/26 00:48:43;;;;;;;9.88;7.95;;;;;;;8.88;83.68;92429.19;512582;28;786;-60
2023/04/26 00:48:58;;;;;;;9.93;8.07;;;;;;;8.88;83.69;92425.72;513863;28;868;-60
2023/04/26 00:49:15;;;;;;;10.07;8.57;;;;;;;8.88;83.86;92431.94;513734;28;1103;-60
2023/04/26 00:49:31;;;;;;;10.93;9.27;;;;;;;8.84;83.45;92434.34;513836;28;912;-60
2023/04/26 00:49:46;;;;;;;10.70;9.00;;;;;;;8.80;83.58;92425.75;513771;28;1007;-60
2023/04/26 00:50:03;;;;;;;10.70;8.57;;;;;;;8.79;83.99;92432.53;514420;28;908;-61
2023/04/26 00:50:19;;;;;;;11.23;8.45;;;;;;;8.78;84.10;92431.09;515749;28;990;-60
2023/04/26 00:50:34;;;;;;;8.50;7.35;;;;;;;8.79;84.02;92429.78;515765;28;892;-60
2023/04/26 00:50:50;;;;;;;8.13;6.50;;;;;;;8.80;83.90;92436.78;515807;28;1674;-60
2023/04/26 00:51:05;;;;;;;7.55;6.50;;;;;;;8.77;84.01;92428.91;515792;28;863;-60
2023/04/26 00:51:21;;;;;;;8.50;6.73;;;;;;;8.74;84.12;92432.78;515754;28;849;-60
2023/04/26 00:51:36;;;;;;;9.35;7.00;;;;;;;8.73;83.93;92429.28;515711;28;871;-60
2023/04/26 00:51:52;;;;;;;10.17;6.97;;;;;;;8.47;84.22;92394.06;515823;28;774;-60
2023/04/26 00:52:08;;;;;;;10.43;7.22;;;;;;;8.73;84.22;92432.03;513688;28;775;-60
2023/04/26 00:52:24;;;;;;;9.65;7.00;;;;;;;8.74;84.14;92430.78;514295;28;893;-60
2023/04/26 00:52:40;;;;;;;9.48;6.60;;;;;;;8.70;84.25;92430.44;513776;28;880;-60
2023/04/26 00:52:56;;;;;;;9.32;7.18;;;;;;;8.67;84.23;92428.78;511796;29;823;-60
2023/04/26 00:53:13;;;;;;;9.57;7.70;;;;;;;8.67;84.58;92434.28;511762;29;806;-60
2023/04/26 00:53:30;;;;;;;9.60;7.45;;;;;;;8.69;84.44;92436.47;511824;29;903;-60
2023/04/26 00:53:45;;;;;;;9.38;6.93;;;;;;;8.63;84.65;92433.97;511753;29;1012;-60
2023/04/26 00:54:00;;;;;;;8.70;7.13;;;;;;;8.55;84.85;92427.78;512766;28;1112;-60
2023/04/26 00:54:16;;;;;;;8.57;7.23;;;;;;;8.52;85.05;92437.16;513745;28;765;-60
2023/04/26 00:54:32;;;;;;;8.60;7.20;;;;;;;8.52;85.20;92433.66;514588;28;857;-60
2023/04/26 00:54:48;;;;;;;9.60;7.55;;;;;;;8.53;85.65;92435.88;515843;28;825;-60
2023/04/26 00:55:03;;;;;;;8.93;7.10;;;;;;;8.54;85.40;92433.81;515801;28;829;-60
2023/04/26 00:55:21;;;;;;;8.53;6.97;;;;;;;8.49;85.70;92424.50;514535;28;965;-60
2023/04/26 00:55:36;;;;;;;9.02;7.38;;;;;;;8.54;85.82;92431.81;515773;28;835;-60
2023/04/26 00:55:52;;;;;;;10.20;7.50;;;;;;;8.55;85.38;92432.56;515760;28;899;-60
2023/04/26 00:56:08;;;;;;;11.75;7.32;;;;;;;8.51;85.44;92430.16;515716;28;884;-60
2023/04/26 00:56:25;;;;;;;10.93;7.57;;;;;;;8.48;85.48;92434.06;515742;28;823;-60
2023/04/26 00:56:41;;;;;;;10.52;8.32;;;;;;;8.45;85.41;92435.16;513744;28;904;-60
2023/04/26 00:56:56;;;;;;;12.20;9.07;;;;;;;8.38;85.21;92430.47;513822;28;861;-60
2023/04/26 00:57:11;;;;;;;11.45;8.93;;;;;;;8.31;85.34;92431.97;514611;28;919;-60
2023/04/26 00:57:27;;;;;;;10.27;8.63;;;;;;;8.26;85.81;92432.16;515817;28;828;-60
2023/04/26 00:57:44;;;;;;;11.30;8.87;;;;;;;8.11;85.97;92407.47;515627;28;1127;-60
2023/04/26 00:58:00;;;;;;;11.70;8.65;;;;;;;8.10;86.06;92425.97;513812;28;851;-60
2023/04/26 00:58:15;;;;;;;11.80;8.43;;;;;;;8.14;86.33;92434.56;513676;28;1583;-60
2023/04/26 00:58:31;;;;;;;13.25;8.82;;;;;;;8.08;86.35;92431.31;514417;28;1914;-60
2023/04/26 00:58:46;;;;;;;12.90;9.30;;;;;;;8.05;86.58;92426.19;513805;28;1572;-60
2023/04/26 00:59:02;;;;;;;11.70;9.40;;;;;;;8.03;86.72;92428.78;513741;28;761;-60
2023/04/26 00:59:20;;;;;;;13.73;9.50;;;;;;;7.97;87.04;92431.00;513748;28;998;-60
2023/04/26 00:59:36;;;;;;;12.55;8.70;;;;;;;7.95;87.08;92434.28;511706;29;924;-60
2023/04/26 00:59:51;;;;;;;11.73;8.60;;;;;;;7.94;87.09;92429.38;512520;28;1476;-60
2023/04/26 01:00:07;;;;;;;11.77;9.27;;;;;;;7.95;87.24;92431.53;513734;28;888;-61
2023/04/26 01:00:22;;;;;;;10.68;9.25;;;;;;;7.98;87.45;92432.47;513758;28;867;-60
2023/04/26 01:00:38;;;;;;;11.57;9.40;;;;;;;8.01;87.45;92434.81;514514;28;864;-60
2023/04/26 01:00:53;;;;;;;11.17;9.17;;;;;;;8.06;87.45;92431.13;515780;28;845;-60
2023/04/26 01:01:08;;;;;;;11.50;8.93;;;;;;;8.09;87.39;92426.53;515719;28;903;-60
2023/04/26 01:01:24;;;;;;;11.83;8.70;;;;;;;8.13;87.34;92421.38;515766;28;844;-60
2023/04/26 01:01:41;;;;;;;10.30;8.80;;;;;;;8.16;87.00;92431.28;515879;28;864;-60
2023/04/26 01:01:56;;;;;;;11.90;9.35;;;;;;;8.13;87.19;92427.63;516013;28;883;-60
2023/04/26 01:02:12;;;;;;;11.43;8.48;;;;;;;7.95;87.20;92408.84;515787;28;816;-60
2023/04/26 01:02:27;;;;;;;10.87;8.33;;;;;;;8.00;87.17;92432.63;515998;28;878;-60
2023/04/26 01:02:42;;;;;;;10.68;8.50;;;;;;;7.96;87.46;92432.28;515878;28;885;-60
2023/04/26 01:02:58;;;;;;;9.83;8.40;;;;;;;7.94;87.68;92426.63;515934;28;846;-60
2023/04/26 01:03:14;;;;;;;10.13;8.52;;;;;;;7.92;88.04;92424.44;515716;28;873;-60
2023/04/26 01:03:29;;;;;;;11.17;8.77;;;;;;;7.87;88.27;92435.63;515778;28;884;-60
2023/04/26 01:03:45;;;;;;;10.48;8.35;;;;;;;7.78;88.55;92431.44;515702;28;869;-60
2023/04/26 01:04:01;;;;;;;10.52;8.27;;;;;;;7.81;88.61;92429.59;515725;28;934;-60
2023/04/26 01:04:17;;;;;;;11.70;8.75;;;;;;;7.84;88.69;92428.50;515712;28;835;-61
2023/04/26 01:04:33;;;;;;;10.40;8.63;;;;;;;7.88;88.78;92423.34;515712;28;936;-60
2023/04/26 01:04:49;;;;;;;10.25;8.70;;;;;;;7.92;89.14;92424.44;515854;28;847;-60
2023/04/26 01:05:05;;;;;;;10.57;8.73;;;;;;;7.98;89.01;92427.69;515686;28;884;-60
2023/04/26 01:05:20;;;;;;;10.95;8.18;;;;;;;8.01;88.60;92423.81;515820;28;856;-60
2023/04/26 01:05:37;;;;;;;11.43;7.80;;;;;;;8.06;88.80;92427.66;515771;28;844;-60
2023/04/26 01:05:52;;;;;;;9.65;7.90;;;;;;;8.10;88.46;92431.47;515790;28;889;-60
2023/04/26 01:06:07;;;;;;;10.82;8.57;;;;;;;8.11;88.43;92419.22;514402;28;848;-61
2023/04/26 01:06:23;;;;;;;11.17;8.47;;;;;;;8.16;87.92;92420.28;515809;28;821;-60
2023/04/26 01:06:38;;;;;;;10.00;8.17;;;;;;;8.19;87.94;92424.66;515708;28;900;-60
2023/04/26 01:06:54;;;;;;;9.75;8.07;;;;;;;8.08;87.54;92405.81;513791;28;786;-60
2023/04/26 01:07:10;;;;;;;9.73;7.90;;;;;;;8.25;87.73;92428.69;513694;28;931;-60
2023/04/26 01:07:26;;;;;;;9.43;7.70;;;;;;;8.28;87.35;92426.84;513776;28;834;-60
2023/04/26 01:07:41;;;;;;;9.60;7.57;;;;;;;8.29;87.16;92426.28;513722;28;811;-60
2023/04/26 01:07:58;;;;;;;10.27;7.65;;;;;;;8.33;87.00;92428.66;514258;28;818;-60
2023/04/26 01:08:16;;;;;;;10.68;7.75;;;;;;;8.35;86.71;92426.06;513620;28;910;-60
2023/04/26 01:08:31;;;;;;;10.18;7.97;;;;;;;8.37;86.48;92421.47;513612;28;911;-60
2023/04/26 01:08:46;;;;;;;10.40;7.85;;;;;;;8.40;86.36;92419.63;512769;28;778;-60
2023/04/26 01:09:04;;;;;;;11.53;7.53;;;;;;;8.44;86.03;92424.72;513703;28;868;-60
2023/04/26 01:09:19;;;;;;;10.75;7.93;;;;;;;8.44;85.84;92428.22;513803;28;887;-60
2023/04/26 01:09:35;;;;;;;9.27;7.80;;;;;;;8.46;85.75;92424.91;513756;28;832;-60
2023/04/26 01:09:50;;;;;;;9.33;7.20;;;;;;;8.48;85.67;92431.31;513731;28;1208;-60
2023/04/26 01:10:08;;;;;;;10.38;7.88;;;;;;;8.50;85.38;92425.97;512670;28;975;-60
2023/04/26 01:10:23;;;;;;;9.18;7.78;;;;;;;8.53;85.39;92424.13;513715;28;930;-60
2023/04/26 01:10:39;;;;;;;8.43;7.35;;;;;;;8.53;85.18;92433.13;513785;28;868;-60
2023/04/26 01:10:54;;;;;;;8.85;7.78;;;;;;;8.40;84.91;92401.09;511754;28;988;-60
2023/04/26 01:11:10;;;;;;;9.17;7.63;;;;;;;8.57;84.69;92427.22;511812;29;1039;-60
2023/04/26 01:11:25;;;;;;;9.52;7.95;;;;;;;8.57;84.80;92427.22;510480;29;772;-60
2023/04/26 01:11:42;;;;;;;9.13;7.73;;;;;;;8.59;84.58;92427.38;511695;29;856;-60
2023/04/26 01:11:59;;;;;;;9.07;7.05;;;;;;;8.60;84.56;92431.63;512451;28;2445;-61
2023/04/26 01:12:14;;;;;;;9.63;7.25;;;;;;;8.61;84.19;92427.56;512348;28;861;-60
2023/04/26 01:12:31;;;;;;;9.50;7.35;;;;;;;8.60;84.12;92429.56;509792;29;865;-60
2023/04/26 01:12:46;;;;;;;9.10;7.28;;;;;;;8.63;84.28;92428.47;509832;29;892;-60
2023/04/26 01:13:02;;;;;;;9.55;7.50;;;;;;;8.61;84.04;92424.81;508602;29;898;-60
2023/04/26 01:13:18;;;;;;;9.88;7.70;;;;;;;8.64;83.96;92424.41;509820;29;912;-61
2023/04/26 01:13:35;;;;;;;9.03;7.43;;;;;;;8.67;83.79;92428.06;510560;29;980;-60
2023/04/26 01:13:50;;;;;;;10.00;7.03;;;;;;;8.67;83.57;92434.28;509820;29;907;-61
2023/04/26 01:14:07;;;;;;;9.40;7.05;;;;;;;8.66;83.80;92432.84;510683;29;873;-61
2023/04/26 01:14:23;;;;;;;9.63;7.30;;;;;;;8.67;83.81;92430.81;512645;28;867;-60
2023/04/26 01:14:39;;;;;;;9.65;7.13;;;;;;;8.65;83.80;92428.63;513815;28;789;-60
2023/04/26 01:14:54;;;;;;;9.40;7.15;;;;;;;8.64;83.78;92435.41;514590;28;834;-60
2023/04/26 01:15:10;;;;;;;8.85;6.97;;;;;;;8.67;83.92;92434.28;513792;28;793;-60
2023/04/26 01:15:27;;;;;;;8.77;7.22;;;;;;;8.63;83.67;92427.72;513738;28;853;-60
2023/04/26 01:15:45;;;;;;;12.65;7.88;;;;;;;8.51;83.76;92438.44;514630;28;809;-60
2023/04/26 01:16:01;;;;;;;14.48;8.30;;;;;;;8.43;83.90;92432.25;515713;28;923;-60
2023/04/26 01:16:18;;;;;;;12.57;8.15;;;;;;;8.34;84.25;92424.59;515593;28;1334;-60
2023/04/26 01:16:34;;;;;;;10.65;7.82;;;;;;;8.29;84.36;92429.03;515660;28;945;-60
2023/04/26 01:16:51;;;;;;;11.17;8.03;;;;;;;8.17;84.61;92413.47;515781;28;825;-60
2023/04/26 01:17:06;;;;;;;10.38;8.05;;;;;;;8.24;84.97;92432.69;515744;28;1707;-60
2023/04/26 01:17:22;;;;;;;10.25;7.95;;;;;;;8.22;84.99;92435.28;515747;28;848;-60
2023/04/26 01:17:38;;;;;;;11.33;8.07;;;;;;;8.22;85.27;92434.53;515821;28;840;-60